sensor_id;sensor_type;location;lat;lon;timestamp;P1;durP1;ratioP1;P2;durP2;ratioP2
76439;SDS011;65274;44.982;20.060;2023-08-01T05:08:12;5.07;;;4.57;;
76439;SDS011;65274;44.982;20.060;2023-08-01T05:13:56;4.18;;;3.75;;
76439;SDS011;65274;44.982;20.060;2023-08-01T05:16:23;5.40;;;3.92;;
76439;SDS011;65274;44.982;20.060;2023-08-01T05:19:17;4.32;;;3.92;;
76439;SDS011;65274;44.982;20.060;2023-08-01T05:21:43;6.65;;;5.25;;
76439;SDS011;65274;44.982;20.060;2023-08-01T05:24:09;7.50;;;5.80;;
76439;SDS011;65274;44.982;20.060;2023-08-01T05:26:35;8.00;;;6.20;;
76439;SDS011;65274;44.982;20.060;2023-08-01T05:29:01;7.72;;;6.20;;
76439;SDS011;65274;44.982;20.060;2023-08-01T05:31:28;7.32;;;5.53;;
76439;SDS011;65274;44.982;20.060;2023-08-01T05:33:54;10.13;;;7.20;;
76439;SDS011;65274;44.982;20.060;2023-08-01T05:36:20;6.85;;;5.57;;
76439;SDS011;65274;44.982;20.060;2023-08-01T05:38:47;6.13;;;4.25;;
76439;SDS011;65274;44.982;20.060;2023-08-01T05:41:13;5.13;;;4.55;;
76439;SDS011;65274;44.982;20.060;2023-08-01T05:43:39;7.05;;;4.93;;
76439;SDS011;65274;44.982;20.060;2023-08-01T05:46:05;5.07;;;3.75;;
76439;SDS011;65274;44.982;20.060;2023-08-01T05:48:31;6.53;;;5.50;;
76439;SDS011;65274;44.982;20.060;2023-08-01T05:50:57;8.20;;;5.32;;
76439;SDS011;65274;44.982;20.060;2023-08-01T05:53:23;8.50;;;6.63;;
76439;SDS011;65274;44.982;20.060;2023-08-01T05:55:49;7.57;;;5.40;;
76439;SDS011;65274;44.982;20.060;2023-08-01T05:58:16;4.97;;;4.32;;
76439;SDS011;65274;44.982;20.060;2023-08-01T06:00:42;7.55;;;4.90;;
76439;SDS011;65274;44.982;20.060;2023-08-01T06:03:08;5.32;;;4.43;;
76439;SDS011;65274;44.982;20.060;2023-08-01T06:05:35;4.38;;;3.72;;
76439;SDS011;65274;44.982;20.060;2023-08-01T06:08:02;4.93;;;3.92;;
76439;SDS011;65274;44.982;20.060;2023-08-01T06:10:28;4.85;;;3.30;;
76439;SDS011;65274;44.982;20.060;2023-08-01T06:12:54;3.78;;;3.40;;
76439;SDS011;65274;44.982;20.060;2023-08-01T06:15:20;6.35;;;4.22;;
76439;SDS011;65274;44.982;20.060;2023-08-01T06:17:47;5.20;;;4.20;;
76439;SDS011;65274;44.982;20.060;2023-08-01T06:20:13;4.75;;;3.83;;
76439;SDS011;65274;44.982;20.060;2023-08-01T06:22:39;4.53;;;3.67;;
76439;SDS011;65274;44.982;20.060;2023-08-01T06:25:05;5.25;;;3.35;;
76439;SDS011;65274;44.982;20.060;2023-08-01T06:27:32;5.38;;;3.83;;
76439;SDS011;65274;44.982;20.060;2023-08-01T06:29:58;4.00;;;3.45;;
76439;SDS011;65274;44.982;20.060;2023-08-01T06:32:24;7.32;;;4.30;;
76439;SDS011;65274;44.982;20.060;2023-08-01T06:34:50;5.47;;;4.15;;
76439;SDS011;65274;44.982;20.060;2023-08-01T06:37:16;4.63;;;3.47;;
76439;SDS011;65274;44.982;20.060;2023-08-01T06:39:42;3.42;;;2.92;;
76439;SDS011;65274;44.982;20.060;2023-08-01T06:42:08;4.40;;;3.20;;
76439;SDS011;65274;44.982;20.060;2023-08-01T06:44:34;5.05;;;4.20;;
76439;SDS011;65274;44.982;20.060;2023-08-01T06:47:00;4.65;;;3.90;;
76439;SDS011;65274;44.982;20.060;2023-08-01T06:49:26;4.20;;;3.45;;
76439;SDS011;65274;44.982;20.060;2023-08-01T06:51:52;3.53;;;3.03;;
76439;SDS011;65274;44.982;20.060;2023-08-01T06:54:18;4.43;;;4.00;;
76439;SDS011;65274;44.982;20.060;2023-08-01T06:56:44;4.95;;;4.15;;
76439;SDS011;65274;44.982;20.060;2023-08-01T06:59:16;3.33;;;2.92;;
76439;SDS011;65274;44.982;20.060;2023-08-01T07:01:42;3.15;;;2.78;;
76439;SDS011;65274;44.982;20.060;2023-08-01T07:04:09;2.47;;;2.28;;
76439;SDS011;65274;44.982;20.060;2023-08-01T07:06:35;2.17;;;1.98;;
76439;SDS011;65274;44.982;20.060;2023-08-01T07:09:01;1.83;;;1.42;;
76439;SDS011;65274;44.982;20.060;2023-08-01T07:11:27;3.13;;;2.13;;
76439;SDS011;65274;44.982;20.060;2023-08-01T07:13:54;2.92;;;2.15;;
76439;SDS011;65274;44.982;20.060;2023-08-01T07:16:20;3.22;;;2.38;;
76439;SDS011;65274;44.982;20.060;2023-08-01T07:18:46;3.97;;;2.40;;
76439;SDS011;65274;44.982;20.060;2023-08-01T07:21:13;4.38;;;1.95;;
76439;SDS011;65274;44.982;20.060;2023-08-01T07:23:39;2.60;;;2.10;;
76439;SDS011;65274;44.982;20.060;2023-08-01T07:26:05;3.55;;;2.30;;
76439;SDS011;65274;44.982;20.060;2023-08-01T07:28:31;2.72;;;1.85;;
76439;SDS011;65274;44.982;20.060;2023-08-01T07:31:01;2.38;;;2.17;;
76439;SDS011;65274;44.982;20.060;2023-08-01T07:33:27;3.17;;;1.80;;
76439;SDS011;65274;44.982;20.060;2023-08-01T07:35:54;4.28;;;1.83;;
76439;SDS011;65274;44.982;20.060;2023-08-01T07:38:20;1.70;;;1.27;;
76439;SDS011;65274;44.982;20.060;2023-08-01T07:40:46;3.30;;;2.22;;
76439;SDS011;65274;44.982;20.060;2023-08-01T07:43:12;3.25;;;1.80;;
76439;SDS011;65274;44.982;20.060;2023-08-01T07:45:38;2.28;;;1.95;;
76439;SDS011;65274;44.982;20.060;2023-08-01T07:48:04;3.92;;;1.88;;
76439;SDS011;65274;44.982;20.060;2023-08-01T07:50:30;3.25;;;1.65;;
76439;SDS011;65274;44.982;20.060;2023-08-01T07:52:56;4.43;;;2.33;;
76439;SDS011;65274;44.982;20.060;2023-08-01T07:55:22;4.20;;;1.85;;
76439;SDS011;65274;44.982;20.060;2023-08-01T07:57:48;2.20;;;1.70;;
76439;SDS011;65274;44.982;20.060;2023-08-01T08:00:15;1.37;;;1.27;;
76439;SDS011;65274;44.982;20.060;2023-08-01T08:02:41;2.50;;;1.58;;
76439;SDS011;65274;44.982;20.060;2023-08-01T08:07:34;1.23;;;1.10;;
76439;SDS011;65274;44.982;20.060;2023-08-01T08:10:00;2.13;;;1.58;;
76439;SDS011;65274;44.982;20.060;2023-08-01T08:12:26;1.40;;;1.30;;
76439;SDS011;65274;44.982;20.060;2023-08-01T08:14:52;1.37;;;1.27;;
76439;SDS011;65274;44.982;20.060;2023-08-01T08:17:18;2.07;;;1.80;;
76439;SDS011;65274;44.982;20.060;2023-08-01T08:19:44;3.73;;;1.63;;
76439;SDS011;65274;44.982;20.060;2023-08-01T08:22:10;1.67;;;1.33;;
76439;SDS011;65274;44.982;20.060;2023-08-01T08:24:36;1.40;;;1.30;;
76439;SDS011;65274;44.982;20.060;2023-08-01T08:27:02;1.35;;;1.25;;
76439;SDS011;65274;44.982;20.060;2023-08-01T08:29:29;1.55;;;1.45;;
76439;SDS011;65274;44.982;20.060;2023-08-01T08:31:56;1.38;;;1.20;;
76439;SDS011;65274;44.982;20.060;2023-08-01T08:34:22;1.67;;;1.58;;
76439;SDS011;65274;44.982;20.060;2023-08-01T08:36:48;1.52;;;1.40;;
76439;SDS011;65274;44.982;20.060;2023-08-01T08:39:15;1.58;;;1.30;;
76439;SDS011;65274;44.982;20.060;2023-08-01T08:41:45;2.45;;;1.73;;
76439;SDS011;65274;44.982;20.060;2023-08-01T08:44:12;1.38;;;1.20;;
76439;SDS011;65274;44.982;20.060;2023-08-01T08:46:41;2.03;;;1.50;;
76439;SDS011;65274;44.982;20.060;2023-08-01T08:49:08;1.30;;;1.20;;
76439;SDS011;65274;44.982;20.060;2023-08-01T08:51:35;0.70;;;0.70;;
76439;SDS011;65274;44.982;20.060;2023-08-01T08:54:02;0.90;;;0.90;;
76439;SDS011;65274;44.982;20.060;2023-08-01T08:58:54;1.35;;;1.25;;
76439;SDS011;65274;44.982;20.060;2023-08-01T09:01:20;1.65;;;1.27;;
76439;SDS011;65274;44.982;20.060;2023-08-01T09:03:46;2.05;;;1.52;;
76439;SDS011;65274;44.982;20.060;2023-08-01T09:06:27;1.83;;;1.52;;
76439;SDS011;65274;44.982;20.060;2023-08-01T09:08:55;1.10;;;1.10;;
76439;SDS011;65274;44.982;20.060;2023-08-01T09:11:21;2.47;;;1.10;;
76439;SDS011;65274;44.982;20.060;2023-08-01T09:13:48;1.33;;;1.23;;
76439;SDS011;65274;44.982;20.060;2023-08-01T09:16:15;0.98;;;0.98;;
76439;SDS011;65274;44.982;20.060;2023-08-01T09:18:50;1.40;;;1.30;;
76439;SDS011;65274;44.982;20.060;2023-08-01T09:21:20;1.52;;;1.17;;
76439;SDS011;65274;44.982;20.060;2023-08-01T09:23:46;1.95;;;1.80;;
76439;SDS011;65274;44.982;20.060;2023-08-01T09:26:14;1.70;;;1.60;;
76439;SDS011;65274;44.982;20.060;2023-08-01T09:28:40;1.40;;;1.30;;
76439;SDS011;65274;44.982;20.060;2023-08-01T09:31:06;1.63;;;1.48;;
76439;SDS011;65274;44.982;20.060;2023-08-01T09:35:58;1.35;;;1.10;;
76439;SDS011;65274;44.982;20.060;2023-08-01T09:38:24;3.25;;;1.92;;
76439;SDS011;65274;44.982;20.060;2023-08-01T09:40:51;1.52;;;1.42;;
76439;SDS011;65274;44.982;20.060;2023-08-01T09:45:50;1.48;;;1.38;;
76439;SDS011;65274;44.982;20.060;2023-08-01T09:48:26;1.70;;;1.52;;
76439;SDS011;65274;44.982;20.060;2023-08-01T09:51:08;0.98;;;0.95;;
76439;SDS011;65274;44.982;20.060;2023-08-01T09:53:35;1.30;;;1.10;;
76439;SDS011;65274;44.982;20.060;2023-08-01T09:56:02;0.70;;;0.70;;
76439;SDS011;65274;44.982;20.060;2023-08-01T09:58:32;1.17;;;1.15;;
76439;SDS011;65274;44.982;20.060;2023-08-01T10:00:59;0.98;;;0.90;;
76439;SDS011;65274;44.982;20.060;2023-08-01T10:03:29;1.15;;;1.05;;
76439;SDS011;65274;44.982;20.060;2023-08-01T10:05:57;1.20;;;1.17;;
76439;SDS011;65274;44.982;20.060;2023-08-01T10:08:23;0.90;;;0.90;;
76439;SDS011;65274;44.982;20.060;2023-08-01T10:10:50;1.73;;;0.90;;
76439;SDS011;65274;44.982;20.060;2023-08-01T10:13:17;1.73;;;1.63;;
76439;SDS011;65274;44.982;20.060;2023-08-01T10:15:46;1.13;;;1.02;;
76439;SDS011;65274;44.982;20.060;2023-08-01T10:18:12;0.73;;;0.73;;
76439;SDS011;65274;44.982;20.060;2023-08-01T10:20:39;1.65;;;1.48;;
76439;SDS011;65274;44.982;20.060;2023-08-01T10:23:05;0.90;;;0.90;;
76439;SDS011;65274;44.982;20.060;2023-08-01T10:25:32;0.70;;;0.70;;
76439;SDS011;65274;44.982;20.060;2023-08-01T10:27:59;1.48;;;1.38;;
76439;SDS011;65274;44.982;20.060;2023-08-01T10:30:26;1.42;;;1.33;;
76439;SDS011;65274;44.982;20.060;2023-08-01T10:32:54;1.50;;;1.40;;
76439;SDS011;65274;44.982;20.060;2023-08-01T10:35:42;1.30;;;1.20;;
76439;SDS011;65274;44.982;20.060;2023-08-01T10:38:10;1.20;;;1.20;;
76439;SDS011;65274;44.982;20.060;2023-08-01T10:40:39;0.80;;;0.80;;
76439;SDS011;65274;44.982;20.060;2023-08-01T10:43:06;1.05;;;1.05;;
76439;SDS011;65274;44.982;20.060;2023-08-01T10:45:32;0.90;;;0.90;;
76439;SDS011;65274;44.982;20.060;2023-08-01T10:48:11;2.65;;;1.40;;
76439;SDS011;65274;44.982;20.060;2023-08-01T10:50:37;1.15;;;1.05;;
76439;SDS011;65274;44.982;20.060;2023-08-01T10:53:07;1.40;;;1.30;;
76439;SDS011;65274;44.982;20.060;2023-08-01T10:55:44;0.88;;;0.88;;
76439;SDS011;65274;44.982;20.060;2023-08-01T10:58:10;0.98;;;0.98;;
76439;SDS011;65274;44.982;20.060;2023-08-01T11:00:36;1.15;;;0.75;;
76439;SDS011;65274;44.982;20.060;2023-08-01T11:03:03;1.20;;;0.90;;
76439;SDS011;65274;44.982;20.060;2023-08-01T11:05:29;1.20;;;1.10;;
76439;SDS011;65274;44.982;20.060;2023-08-01T11:07:56;1.40;;;1.20;;
76439;SDS011;65274;44.982;20.060;2023-08-01T11:10:24;1.35;;;1.00;;
76439;SDS011;65274;44.982;20.060;2023-08-01T11:12:51;1.00;;;0.90;;
76439;SDS011;65274;44.982;20.060;2023-08-01T11:15:18;1.33;;;1.00;;
76439;SDS011;65274;44.982;20.060;2023-08-01T11:17:54;0.77;;;0.77;;
76439;SDS011;65274;44.982;20.060;2023-08-01T11:20:22;1.30;;;1.20;;
76439;SDS011;65274;44.982;20.060;2023-08-01T11:22:52;0.90;;;0.90;;
76439;SDS011;65274;44.982;20.060;2023-08-01T11:25:18;1.38;;;1.35;;
76439;SDS011;65274;44.982;20.060;2023-08-01T11:27:44;1.23;;;1.00;;
76439;SDS011;65274;44.982;20.060;2023-08-01T11:30:11;0.90;;;0.90;;
76439;SDS011;65274;44.982;20.060;2023-08-01T11:32:38;1.50;;;1.40;;
76439;SDS011;65274;44.982;20.060;2023-08-01T11:35:04;1.17;;;1.08;;
76439;SDS011;65274;44.982;20.060;2023-08-01T11:37:31;1.73;;;0.98;;
76439;SDS011;65274;44.982;20.060;2023-08-01T11:39:58;0.80;;;0.80;;
76439;SDS011;65274;44.982;20.060;2023-08-01T11:42:24;1.20;;;1.10;;
76439;SDS011;65274;44.982;20.060;2023-08-01T11:44:50;1.42;;;0.98;;
76439;SDS011;65274;44.982;20.060;2023-08-01T11:47:17;1.17;;;1.13;;
76439;SDS011;65274;44.982;20.060;2023-08-01T11:49:47;1.10;;;1.10;;
76439;SDS011;65274;44.982;20.060;2023-08-01T11:52:26;1.30;;;1.20;;
76439;SDS011;65274;44.982;20.060;2023-08-01T11:54:54;0.90;;;0.90;;
76439;SDS011;65274;44.982;20.060;2023-08-01T11:57:21;1.65;;;1.00;;
76439;SDS011;65274;44.982;20.060;2023-08-01T11:59:53;1.10;;;1.00;;
76439;SDS011;65274;44.982;20.060;2023-08-01T12:02:26;0.90;;;0.90;;
76439;SDS011;65274;44.982;20.060;2023-08-01T12:07:20;0.90;;;0.90;;
76439;SDS011;65274;44.982;20.060;2023-08-01T12:09:59;0.63;;;0.63;;
76439;SDS011;65274;44.982;20.060;2023-08-01T12:12:26;1.00;;;1.00;;
76439;SDS011;65274;44.982;20.060;2023-08-01T12:14:52;1.95;;;1.67;;
76439;SDS011;65274;44.982;20.060;2023-08-01T12:17:19;1.05;;;1.05;;
76439;SDS011;65274;44.982;20.060;2023-08-01T12:19:45;1.00;;;1.00;;
76439;SDS011;65274;44.982;20.060;2023-08-01T12:22:12;0.47;;;0.47;;
76439;SDS011;65274;44.982;20.060;2023-08-01T12:24:39;1.25;;;0.98;;
76439;SDS011;65274;44.982;20.060;2023-08-01T12:27:08;1.02;;;0.90;;
76439;SDS011;65274;44.982;20.060;2023-08-01T12:29:34;0.80;;;0.80;;
76439;SDS011;65274;44.982;20.060;2023-08-01T12:32:03;0.73;;;0.73;;
76439;SDS011;65274;44.982;20.060;2023-08-01T12:34:32;0.90;;;0.90;;
76439;SDS011;65274;44.982;20.060;2023-08-01T12:36:58;0.77;;;0.70;;
76439;SDS011;65274;44.982;20.060;2023-08-01T12:39:26;1.40;;;1.30;;
76439;SDS011;65274;44.982;20.060;2023-08-01T12:41:52;1.25;;;1.15;;
76439;SDS011;65274;44.982;20.060;2023-08-01T12:44:21;1.30;;;1.20;;
76439;SDS011;65274;44.982;20.060;2023-08-01T12:46:47;1.05;;;0.93;;
76439;SDS011;65274;44.982;20.060;2023-08-01T12:49:14;1.20;;;1.10;;
76439;SDS011;65274;44.982;20.060;2023-08-01T12:51:40;2.90;;;1.38;;
76439;SDS011;65274;44.982;20.060;2023-08-01T12:54:06;0.88;;;0.70;;
76439;SDS011;65274;44.982;20.060;2023-08-01T12:56:32;1.13;;;0.60;;
76439;SDS011;65274;44.982;20.060;2023-08-01T13:01:24;0.98;;;0.90;;
76439;SDS011;65274;44.982;20.060;2023-08-01T13:03:50;0.85;;;0.80;;
76439;SDS011;65274;44.982;20.060;2023-08-01T13:08:43;0.85;;;0.85;;
76439;SDS011;65274;44.982;20.060;2023-08-01T13:11:10;1.48;;;0.88;;
76439;SDS011;65274;44.982;20.060;2023-08-01T13:13:38;0.80;;;0.80;;
76439;SDS011;65274;44.982;20.060;2023-08-01T13:16:06;1.60;;;1.50;;
76439;SDS011;65274;44.982;20.060;2023-08-01T13:18:32;1.55;;;1.45;;
76439;SDS011;65274;44.982;20.060;2023-08-01T13:20:58;3.20;;;1.67;;
76439;SDS011;65274;44.982;20.060;2023-08-01T13:23:25;1.65;;;1.52;;
76439;SDS011;65274;44.982;20.060;2023-08-01T13:25:51;1.10;;;1.00;;
76439;SDS011;65274;44.982;20.060;2023-08-01T13:28:18;2.67;;;1.50;;
76439;SDS011;65274;44.982;20.060;2023-08-01T13:30:44;2.73;;;1.50;;
76439;SDS011;65274;44.982;20.060;2023-08-01T13:33:10;2.30;;;1.33;;
76439;SDS011;65274;44.982;20.060;2023-08-01T13:35:36;1.90;;;1.67;;
76439;SDS011;65274;44.982;20.060;2023-08-01T13:38:02;1.30;;;1.20;;
76439;SDS011;65274;44.982;20.060;2023-08-01T13:40:30;1.42;;;1.33;;
76439;SDS011;65274;44.982;20.060;2023-08-01T13:42:56;2.47;;;1.60;;
76439;SDS011;65274;44.982;20.060;2023-08-01T13:45:22;1.73;;;1.35;;
76439;SDS011;65274;44.982;20.060;2023-08-01T13:47:48;1.83;;;1.42;;
76439;SDS011;65274;44.982;20.060;2023-08-01T13:50:14;2.03;;;1.85;;
76439;SDS011;65274;44.982;20.060;2023-08-01T13:52:41;1.60;;;1.50;;
76439;SDS011;65274;44.982;20.060;2023-08-01T13:55:07;1.33;;;1.23;;
76439;SDS011;65274;44.982;20.060;2023-08-01T13:57:34;2.40;;;1.20;;
76439;SDS011;65274;44.982;20.060;2023-08-01T14:00:01;1.00;;;1.00;;
76439;SDS011;65274;44.982;20.060;2023-08-01T14:04:55;1.85;;;0.85;;
76439;SDS011;65274;44.982;20.060;2023-08-01T14:07:21;0.70;;;0.70;;
76439;SDS011;65274;44.982;20.060;2023-08-01T14:09:47;1.05;;;0.98;;
76439;SDS011;65274;44.982;20.060;2023-08-01T14:12:16;0.95;;;0.88;;
76439;SDS011;65274;44.982;20.060;2023-08-01T14:14:44;0.68;;;0.68;;
76439;SDS011;65274;44.982;20.060;2023-08-01T14:17:10;2.17;;;1.33;;
76439;SDS011;65274;44.982;20.060;2023-08-01T14:19:39;1.13;;;1.10;;
76439;SDS011;65274;44.982;20.060;2023-08-01T14:22:05;1.73;;;1.25;;
76439;SDS011;65274;44.982;20.060;2023-08-01T14:24:31;2.20;;;1.02;;
76439;SDS011;65274;44.982;20.060;2023-08-01T14:26:57;1.48;;;1.35;;
76439;SDS011;65274;44.982;20.060;2023-08-01T14:29:23;2.08;;;1.30;;
76439;SDS011;65274;44.982;20.060;2023-08-01T14:31:51;2.17;;;1.38;;
76439;SDS011;65274;44.982;20.060;2023-08-01T14:34:17;1.30;;;1.05;;
76439;SDS011;65274;44.982;20.060;2023-08-01T14:36:43;0.82;;;0.82;;
76439;SDS011;65274;44.982;20.060;2023-08-01T14:39:09;0.80;;;0.80;;
76439;SDS011;65274;44.982;20.060;2023-08-01T14:41:35;1.40;;;1.00;;
76439;SDS011;65274;44.982;20.060;2023-08-01T14:44:01;1.83;;;1.45;;
76439;SDS011;65274;44.982;20.060;2023-08-01T14:46:28;2.88;;;1.40;;
76439;SDS011;65274;44.982;20.060;2023-08-01T14:48:54;1.50;;;1.40;;
76439;SDS011;65274;44.982;20.060;2023-08-01T14:51:20;1.38;;;1.27;;
76439;SDS011;65274;44.982;20.060;2023-08-01T14:53:46;1.02;;;1.02;;
76439;SDS011;65274;44.982;20.060;2023-08-01T14:56:12;1.45;;;1.35;;
76439;SDS011;65274;44.982;20.060;2023-08-01T14:58:38;1.85;;;1.67;;
76439;SDS011;65274;44.982;20.060;2023-08-01T15:01:11;1.55;;;1.45;;
76439;SDS011;65274;44.982;20.060;2023-08-01T15:03:38;2.08;;;1.88;;
76439;SDS011;65274;44.982;20.060;2023-08-01T15:06:07;2.65;;;1.63;;
76439;SDS011;65274;44.982;20.060;2023-08-01T15:08:38;1.75;;;1.65;;
76439;SDS011;65274;44.982;20.060;2023-08-01T15:11:04;2.13;;;1.63;;
76439;SDS011;65274;44.982;20.060;2023-08-01T15:13:31;1.20;;;1.10;;
76439;SDS011;65274;44.982;20.060;2023-08-01T15:15:57;1.17;;;1.10;;
76439;SDS011;65274;44.982;20.060;2023-08-01T15:18:24;0.93;;;0.93;;
76439;SDS011;65274;44.982;20.060;2023-08-01T15:20:50;1.40;;;1.30;;
76439;SDS011;65274;44.982;20.060;2023-08-01T15:23:16;0.88;;;0.88;;
76439;SDS011;65274;44.982;20.060;2023-08-01T15:25:50;0.93;;;0.90;;
76439;SDS011;65274;44.982;20.060;2023-08-01T15:28:17;1.10;;;1.00;;
76439;SDS011;65274;44.982;20.060;2023-08-01T15:30:43;1.20;;;1.10;;
76439;SDS011;65274;44.982;20.060;2023-08-01T15:33:09;1.90;;;1.20;;
76439;SDS011;65274;44.982;20.060;2023-08-01T15:35:35;1.75;;;1.30;;
76439;SDS011;65274;44.982;20.060;2023-08-01T15:38:01;1.70;;;1.60;;
76439;SDS011;65274;44.982;20.060;2023-08-01T15:40:27;1.85;;;1.60;;
76439;SDS011;65274;44.982;20.060;2023-08-01T15:42:53;1.63;;;1.33;;
76439;SDS011;65274;44.982;20.060;2023-08-01T15:45:19;2.00;;;1.50;;
76439;SDS011;65274;44.982;20.060;2023-08-01T15:47:45;1.30;;;1.17;;
76439;SDS011;65274;44.982;20.060;2023-08-01T15:50:12;2.10;;;1.65;;
76439;SDS011;65274;44.982;20.060;2023-08-01T15:52:38;0.90;;;0.90;;
76439;SDS011;65274;44.982;20.060;2023-08-01T15:55:04;0.90;;;0.90;;
76439;SDS011;65274;44.982;20.060;2023-08-01T15:57:30;0.60;;;0.60;;
76439;SDS011;65274;44.982;20.060;2023-08-01T15:59:56;0.70;;;0.70;;
76439;SDS011;65274;44.982;20.060;2023-08-01T16:02:22;0.90;;;0.90;;
76439;SDS011;65274;44.982;20.060;2023-08-01T16:04:49;0.95;;;0.90;;
76439;SDS011;65274;44.982;20.060;2023-08-01T16:07:15;0.70;;;0.70;;
76439;SDS011;65274;44.982;20.060;2023-08-01T16:09:41;0.75;;;0.75;;
76439;SDS011;65274;44.982;20.060;2023-08-01T16:12:07;0.68;;;0.60;;
76439;SDS011;65274;44.982;20.060;2023-08-01T16:14:33;0.88;;;0.88;;
76439;SDS011;65274;44.982;20.060;2023-08-01T16:17:00;0.85;;;0.85;;
76439;SDS011;65274;44.982;20.060;2023-08-01T16:19:26;0.95;;;0.93;;
76439;SDS011;65274;44.982;20.060;2023-08-01T16:21:52;1.05;;;0.98;;
76439;SDS011;65274;44.982;20.060;2023-08-01T16:24:18;1.60;;;0.95;;
76439;SDS011;65274;44.982;20.060;2023-08-01T16:26:44;1.15;;;0.98;;
76439;SDS011;65274;44.982;20.060;2023-08-01T16:29:10;1.23;;;1.13;;
76439;SDS011;65274;44.982;20.060;2023-08-01T16:31:37;1.63;;;1.38;;
76439;SDS011;65274;44.982;20.060;2023-08-01T16:34:03;1.10;;;1.00;;
76439;SDS011;65274;44.982;20.060;2023-08-01T16:36:32;1.25;;;1.15;;
76439;SDS011;65274;44.982;20.060;2023-08-01T16:38:58;1.10;;;1.00;;
76439;SDS011;65274;44.982;20.060;2023-08-01T16:41:24;1.23;;;1.02;;
76439;SDS011;65274;44.982;20.060;2023-08-01T16:43:50;0.82;;;0.82;;
76439;SDS011;65274;44.982;20.060;2023-08-01T16:46:19;0.80;;;0.80;;
76439;SDS011;65274;44.982;20.060;2023-08-01T16:48:45;1.98;;;0.98;;
76439;SDS011;65274;44.982;20.060;2023-08-01T16:51:11;0.98;;;0.88;;
76439;SDS011;65274;44.982;20.060;2023-08-01T16:53:37;1.23;;;1.10;;
76439;SDS011;65274;44.982;20.060;2023-08-01T16:56:04;1.10;;;1.00;;
76439;SDS011;65274;44.982;20.060;2023-08-01T16:58:30;1.13;;;1.10;;
76439;SDS011;65274;44.982;20.060;2023-08-01T17:00:57;1.10;;;1.05;;
76439;SDS011;65274;44.982;20.060;2023-08-01T17:03:24;0.88;;;0.88;;
76439;SDS011;65274;44.982;20.060;2023-08-01T17:05:51;2.10;;;0.98;;
76439;SDS011;65274;44.982;20.060;2023-08-01T17:08:18;1.73;;;1.42;;
76439;SDS011;65274;44.982;20.060;2023-08-01T17:10:44;8.88;;;4.80;;
76439;SDS011;65274;44.982;20.060;2023-08-01T17:13:12;6.15;;;3.35;;
76439;SDS011;65274;44.982;20.060;2023-08-01T17:15:43;35.13;;;12.68;;
76439;SDS011;65274;44.982;20.060;2023-08-01T17:18:09;12.57;;;5.63;;
76439;SDS011;65274;44.982;20.060;2023-08-01T17:20:38;6.32;;;2.92;;
76439;SDS011;65274;44.982;20.060;2023-08-01T17:23:09;2.90;;;1.85;;
76439;SDS011;65274;44.982;20.060;2023-08-01T17:25:41;6.53;;;2.90;;
76439;SDS011;65274;44.982;20.060;2023-08-01T17:28:09;5.78;;;2.63;;
76439;SDS011;65274;44.982;20.060;2023-08-01T17:30:37;2.60;;;1.52;;
76439;SDS011;65274;44.982;20.060;2023-08-01T17:33:06;1.45;;;1.35;;
76439;SDS011;65274;44.982;20.060;2023-08-01T17:35:32;1.00;;;0.90;;
76439;SDS011;65274;44.982;20.060;2023-08-01T17:37:59;1.17;;;1.08;;
76439;SDS011;65274;44.982;20.060;2023-08-01T17:40:25;1.00;;;0.90;;
76439;SDS011;65274;44.982;20.060;2023-08-01T17:42:52;1.15;;;1.00;;
76439;SDS011;65274;44.982;20.060;2023-08-01T17:45:20;2.58;;;1.15;;
76439;SDS011;65274;44.982;20.060;2023-08-01T17:47:46;0.80;;;0.80;;
76439;SDS011;65274;44.982;20.060;2023-08-01T17:50:12;1.38;;;0.98;;
76439;SDS011;65274;44.982;20.060;2023-08-01T17:52:38;1.00;;;1.00;;
76439;SDS011;65274;44.982;20.060;2023-08-01T17:55:04;1.30;;;1.20;;
76439;SDS011;65274;44.982;20.060;2023-08-01T17:57:31;1.30;;;1.20;;
76439;SDS011;65274;44.982;20.060;2023-08-01T17:59:57;1.17;;;1.05;;
76439;SDS011;65274;44.982;20.060;2023-08-01T18:02:23;0.88;;;0.88;;
76439;SDS011;65274;44.982;20.060;2023-08-01T18:04:52;1.40;;;1.30;;
76439;SDS011;65274;44.982;20.060;2023-08-01T18:07:19;2.03;;;1.77;;
76439;SDS011;65274;44.982;20.060;2023-08-01T18:09:45;2.03;;;1.40;;
76439;SDS011;65274;44.982;20.060;2023-08-01T18:12:11;1.83;;;1.20;;
76439;SDS011;65274;44.982;20.060;2023-08-01T18:14:37;1.45;;;1.35;;
76439;SDS011;65274;44.982;20.060;2023-08-01T18:17:03;1.67;;;1.20;;
76439;SDS011;65274;44.982;20.060;2023-08-01T18:19:29;1.40;;;1.30;;
76439;SDS011;65274;44.982;20.060;2023-08-01T18:21:55;2.80;;;1.92;;
76439;SDS011;65274;44.982;20.060;2023-08-01T18:24:21;4.72;;;3.58;;
76439;SDS011;65274;44.982;20.060;2023-08-01T18:26:47;19.05;;;11.73;;
76439;SDS011;65274;44.982;20.060;2023-08-01T18:29:13;35.60;;;20.83;;
76439;SDS011;65274;44.982;20.060;2023-08-01T18:31:39;36.92;;;22.27;;
76439;SDS011;65274;44.982;20.060;2023-08-01T18:34:05;29.45;;;16.90;;
76439;SDS011;65274;44.982;20.060;2023-08-01T18:36:31;14.88;;;9.88;;
76439;SDS011;65274;44.982;20.060;2023-08-01T18:38:57;7.65;;;5.85;;
76439;SDS011;65274;44.982;20.060;2023-08-01T18:41:27;5.40;;;3.70;;
76439;SDS011;65274;44.982;20.060;2023-08-01T18:43:53;2.95;;;2.55;;
76439;SDS011;65274;44.982;20.060;2023-08-01T18:46:20;2.55;;;2.15;;
76439;SDS011;65274;44.982;20.060;2023-08-01T18:48:47;2.55;;;1.58;;
76439;SDS011;65274;44.982;20.060;2023-08-01T18:51:13;2.97;;;1.80;;
76439;SDS011;65274;44.982;20.060;2023-08-01T18:53:40;2.15;;;1.70;;
76439;SDS011;65274;44.982;20.060;2023-08-01T18:56:13;2.00;;;1.80;;
76439;SDS011;65274;44.982;20.060;2023-08-01T18:58:41;1.52;;;1.33;;
76439;SDS011;65274;44.982;20.060;2023-08-01T19:03:40;1.55;;;1.45;;
76439;SDS011;65274;44.982;20.060;2023-08-01T19:06:07;1.65;;;1.38;;
76439;SDS011;65274;44.982;20.060;2023-08-01T19:08:33;1.17;;;1.17;;
76439;SDS011;65274;44.982;20.060;2023-08-01T19:10:59;2.00;;;1.90;;
76439;SDS011;65274;44.982;20.060;2023-08-01T19:13:25;2.05;;;1.67;;
76439;SDS011;65274;44.982;20.060;2023-08-01T19:15:51;1.65;;;1.55;;
76439;SDS011;65274;44.982;20.060;2023-08-01T19:18:17;1.60;;;1.50;;
76439;SDS011;65274;44.982;20.060;2023-08-01T19:20:43;1.52;;;1.40;;
76439;SDS011;65274;44.982;20.060;2023-08-01T19:23:09;2.05;;;1.85;;
76439;SDS011;65274;44.982;20.060;2023-08-01T19:25:36;1.40;;;1.30;;
76439;SDS011;65274;44.982;20.060;2023-08-01T19:28:02;2.25;;;1.60;;
76439;SDS011;65274;44.982;20.060;2023-08-01T19:30:28;1.92;;;1.70;;
76439;SDS011;65274;44.982;20.060;2023-08-01T19:32:58;1.48;;;1.38;;
76439;SDS011;65274;44.982;20.060;2023-08-01T19:35:24;1.80;;;1.65;;
76439;SDS011;65274;44.982;20.060;2023-08-01T19:37:50;2.03;;;1.83;;
76439;SDS011;65274;44.982;20.060;2023-08-01T19:40:17;1.45;;;1.30;;
76439;SDS011;65274;44.982;20.060;2023-08-01T19:42:43;1.60;;;1.50;;
76439;SDS011;65274;44.982;20.060;2023-08-01T19:45:09;1.52;;;1.42;;
76439;SDS011;65274;44.982;20.060;2023-08-01T19:47:36;2.15;;;1.80;;
76439;SDS011;65274;44.982;20.060;2023-08-01T19:50:03;2.10;;;1.50;;
76439;SDS011;65274;44.982;20.060;2023-08-01T19:52:33;1.98;;;1.60;;
76439;SDS011;65274;44.982;20.060;2023-08-01T19:55:00;1.70;;;1.52;;
76439;SDS011;65274;44.982;20.060;2023-08-01T19:57:26;1.80;;;1.70;;
76439;SDS011;65274;44.982;20.060;2023-08-01T19:59:52;3.45;;;1.83;;
76439;SDS011;65274;44.982;20.060;2023-08-01T20:02:18;1.88;;;1.70;;
76439;SDS011;65274;44.982;20.060;2023-08-01T20:04:44;1.40;;;1.30;;